Time;durP1;ratioP1;P1;durP2;ratioP2;P2;SDS_P1;SDS_P2;PMS_P1;PMS_P2;Temp;Humidity;BMP_temperature;BMP_pressure;BME280_temperature;BME280_humidity;BME280_pressure;Samples;Min_cycle;Max_cycle;Signal;HPM_P1;HPM_P2
2021/12/20 00:27:30;;;;;;;10.00;2.10;;;;;;;-1.03;100.00;99295.41;103980;1314;24236;-26
2021/12/20 00:29:56;;;;;;;10.30;2.20;;;;;;;-1.07;100.00;99303.43;103840;1316;24266;-26
2021/12/20 00:32:22;;;;;;;3.50;1.70;;;;;;;-1.12;100.00;99294.77;103707;1314;24162;-25
2021/12/20 00:34:49;;;;;;;3.80;1.50;;;;;;;-1.06;100.00;99300.56;103814;1314;22765;-30
2021/12/20 00:42:13;;;;;;;4.40;1.00;;;;;;;-1.08;100.00;99301.63;104010;1314;24233;-26
2021/12/20 00:44:39;;;;;;;5.10;1.40;;;;;;;-1.05;100.00;99305.21;104015;1307;22756;-26
2021/12/20 00:47:04;;;;;;;13.60;1.60;;;;;;;-1.09;100.00;99300.85;103900;1314;22450;-26
2021/12/20 00:49:30;;;;;;;5.80;2.00;;;;;;;-1.08;100.00;99304.93;103830;1313;24303;-30
2021/12/20 00:51:56;;;;;;;5.20;1.50;;;;;;;-1.02;100.00;99302.16;103857;1314;24438;-26
2021/12/20 00:54:22;;;;;;;5.70;2.10;;;;;;;-1.01;100.00;99292.81;104044;1306;24189;-30
2021/12/20 00:56:49;;;;;;;7.10;1.70;;;;;;;-1.01;100.00;99303.33;103959;1313;24144;-26
2021/12/20 00:59:15;;;;;;;3.10;1.70;;;;;;;-1.02;100.00;99309.02;103820;1313;23816;-26
2021/12/20 01:01:41;;;;;;;2.10;1.20;;;;;;;-0.95;100.00;99308.67;103737;1314;24161;-26
2021/12/20 01:04:07;;;;;;;5.10;1.70;;;;;;;-0.90;100.00;99304.72;103680;1314;22553;-26
2021/12/20 01:06:32;;;;;;;9.10;1.80;;;;;;;-0.86;100.00;99309.70;103951;1314;24258;-26
2021/12/20 01:08:59;;;;;;;6.90;2.70;;;;;;;-0.87;100.00;99306.95;103905;1305;24152;-26
2021/12/20 01:11:27;;;;;;;32.40;2.40;;;;;;;-0.81;100.00;99300.78;104099;1314;24132;-31
2021/12/20 01:13:53;;;;;;;5.80;2.00;;;;;;;-0.68;100.00;99306.79;104081;1316;24238;-26
2021/12/20 01:16:29;;;;;;;2.40;1.10;;;;;;;-0.65;100.00;99307.54;104029;1314;22492;-30
2021/12/20 01:18:55;;;;;;;5.40;2.30;;;;;;;-0.69;100.00;99309.13;103755;1308;24178;-26
2021/12/20 01:21:21;;;;;;;2.60;1.00;;;;;;;-0.58;100.00;99302.92;103869;1314;24134;-26
2021/12/20 01:23:46;;;;;;;6.90;0.90;;;;;;;-0.59;99.98;99308.84;103856;1307;22447;-31
2021/12/20 01:26:12;;;;;;;5.50;2.70;;;;;;;-0.60;99.84;99312.79;103994;1313;25891;-26
2021/12/20 01:28:42;;;;;;;4.30;1.50;;;;;;;-0.56;99.73;99323.38;103914;1314;24132;-30
2021/12/20 01:31:08;;;;;;;3.50;1.30;;;;;;;-0.49;99.53;99333.68;103939;1313;24357;-30
2021/12/20 01:33:34;;;;;;;5.40;1.30;;;;;;;-0.49;99.71;99340.31;103963;1313;24209;-26
2021/12/20 01:36:01;;;;;;;4.30;1.80;;;;;;;-0.45;99.53;99339.70;103956;1314;24202;-26
2021/12/20 01:38:27;;;;;;;6.40;2.00;;;;;;;-0.46;99.64;99341.71;103695;1314;24258;-30
2021/12/20 01:40:53;;;;;;;2.00;0.90;;;;;;;-0.39;99.31;99341.44;104023;1314;22439;-26
2021/12/20 01:43:19;;;;;;;2.90;1.50;;;;;;;-0.34;98.97;99343.86;104095;1314;24266;-30
2021/12/20 01:45:47;;;;;;;3.20;0.90;;;;;;;-0.29;98.61;99354.36;103801;1314;22475;-30
2021/12/20 01:48:15;;;;;;;4.10;1.60;;;;;;;-0.35;99.23;99359.79;103923;1307;22460;-27
2021/12/20 01:53:11;;;;;;;4.10;2.80;;;;;;;-0.25;98.03;99360.84;103645;1310;24158;-30
2021/12/20 01:55:36;;;;;;;9.30;1.40;;;;;;;-0.35;98.35;99360.83;103809;1314;24179;-30
2021/12/20 01:58:02;;;;;;;18.90;2.60;;;;;;;-0.21;98.13;99360.34;103954;1310;24125;-30
2021/12/20 02:00:29;;;;;;;4.70;2.00;;;;;;;-0.17;97.65;99364.45;103985;1314;24223;-26
2021/12/20 02:03:01;;;;;;;6.50;2.20;;;;;;;-0.25;98.05;99358.23;103814;1308;22730;-30
2021/12/20 02:05:48;;;;;;;7.00;1.90;;;;;;;-0.30;97.89;99362.86;103648;1316;25121;-26
2021/12/20 02:08:17;;;;;;;5.80;1.40;;;;;;;-0.32;97.58;99360.58;103984;1310;24327;-30
2021/12/20 02:10:44;;;;;;;3.70;1.20;;;;;;;-0.30;97.42;99364.99;103845;1312;22459;-30
2021/12/20 02:13:12;;;;;;;2.50;1.40;;;;;;;-0.28;97.41;99367.63;103765;1313;24218;-30
2021/12/20 02:15:38;;;;;;;4.10;1.20;;;;;;;-0.15;97.13;99358.59;103801;1311;24239;-30
2021/12/20 02:18:04;;;;;;;2.70;1.00;;;;;;;-0.13;96.43;99358.10;103980;1307;24370;-26
2021/12/20 02:20:31;;;;;;;3.40;1.60;;;;;;;-0.17;96.70;99367.45;103896;1310;22477;-26
2021/12/20 02:22:57;;;;;;;4.40;2.00;;;;;;;0.02;95.47;99366.54;103896;1314;24113;-26
2021/12/20 02:25:24;;;;;;;3.00;2.00;;;;;;;0.00;95.87;99363.32;104086;1315;22458;-30
2021/12/20 02:27:50;;;;;;;2.60;1.20;;;;;;;-0.16;96.16;99368.93;103933;1314;22462;-26
2021/12/20 02:38:01;;;;;;;3.40;1.50;;;;;;;0.13;94.35;99343.77;103832;1314;24162;-26
2021/12/20 02:40:28;;;;;;;9.30;2.10;;;;;;;-0.04;94.88;99345.21;104033;1305;24113;-26
2021/12/20 02:42:53;;;;;;;2.50;1.20;;;;;;;0.11;94.51;99347.66;104166;1314;24145;-26
2021/12/20 02:45:19;;;;;;;3.30;1.70;;;;;;;0.03;94.37;99352.54;104101;1314;22461;-26
2021/12/20 02:47:46;;;;;;;5.90;2.10;;;;;;;0.13;93.91;99346.02;104083;1314;24148;-30
2021/12/20 02:50:13;;;;;;;5.50;1.70;;;;;;;0.20;93.39;99348.95;103994;1307;22723;-30
2021/12/20 02:52:39;;;;;;;5.30;1.50;;;;;;;0.05;93.21;99346.91;103884;1314;24153;-26
2021/12/20 02:55:06;;;;;;;3.80;1.80;;;;;;;-0.18;94.62;99346.06;104060;1313;25270;-26
2021/12/20 02:57:34;;;;;;;3.30;1.90;;;;;;;-0.02;94.33;99339.02;104164;1310;22792;-30
2021/12/20 03:00:00;;;;;;;3.80;1.90;;;;;;;0.10;94.14;99338.59;103877;1308;22465;-30
2021/12/20 03:02:26;;;;;;;3.30;2.00;;;;;;;0.09;94.05;99343.89;104087;1314;22512;-29
2021/12/20 03:04:52;;;;;;;7.60;1.50;;;;;;;0.19;92.89;99336.38;103785;1314;23987;-30
2021/12/20 03:07:24;;;;;;;6.00;2.10;;;;;;;0.17;93.50;99339.58;103988;1311;24269;-30
2021/12/20 03:09:54;;;;;;;4.00;1.30;;;;;;;0.10;93.35;99334.84;103725;1314;24297;-26
2021/12/20 03:12:23;;;;;;;6.50;1.30;;;;;;;-0.08;94.18;99335.98;103932;1310;24186;-30
2021/12/20 03:14:51;;;;;;;3.00;2.20;;;;;;;0.13;93.91;99332.85;104087;1310;24223;-30
2021/12/20 03:17:17;;;;;;;6.10;1.90;;;;;;;0.33;92.07;99328.30;104113;1314;24150;-26
2021/12/20 03:19:43;;;;;;;6.00;2.60;;;;;;;0.24;92.38;99331.87;104068;1305;22438;-30
2021/12/20 03:22:09;;;;;;;2.80;1.60;;;;;;;0.31;91.31;99328.95;103869;1314;24169;-26
2021/12/20 03:24:34;;;;;;;6.30;1.50;;;;;;;0.11;91.95;99333.15;103720;1314;24225;-26
2021/12/20 03:27:00;;;;;;;6.20;1.70;;;;;;;0.32;91.32;99320.05;103688;1314;24255;-30
2021/12/20 03:29:26;;;;;;;3.70;1.50;;;;;;;0.21;91.02;99327.20;103662;1314;24123;-26
2021/12/20 03:31:53;;;;;;;3.20;1.10;;;;;;;0.01;92.32;99328.93;103969;1313;22833;-30
2021/12/20 03:34:19;;;;;;;8.90;2.90;;;;;;;0.36;90.94;99324.89;103526;1316;22533;-30
2021/12/20 03:36:46;;;;;;;5.70;1.50;;;;;;;0.36;90.85;99328.95;103905;1308;24163;-30
2021/12/20 03:39:12;;;;;;;20.90;2.00;;;;;;;0.26;91.31;99335.42;103699;1310;24269;-29
2021/12/20 03:41:39;;;;;;;4.60;2.70;;;;;;;0.33;90.81;99340.45;103750;1314;22460;-26
2021/12/20 03:44:06;;;;;;;6.40;1.40;;;;;;;0.18;91.55;99350.17;103795;1314;23786;-30
2021/12/20 03:46:32;;;;;;;4.20;1.50;;;;;;;-0.04;92.68;99352.55;103617;1314;24305;-30
2021/12/20 03:48:58;;;;;;;7.40;1.90;;;;;;;0.18;92.41;99353.55;103830;1313;24147;-26
2021/12/20 03:51:24;;;;;;;11.30;3.30;;;;;;;-0.01;92.76;99348.84;104191;1314;22484;-26
2021/12/20 03:53:50;;;;;;;1.60;0.80;;;;;;;0.17;92.51;99354.88;103774;1314;24235;-30
2021/12/20 03:56:15;;;;;;;2.30;1.00;;;;;;;0.04;92.35;99346.27;103860;1305;24264;-30
2021/12/20 03:58:41;;;;;;;4.30;1.40;;;;;;;0.10;92.64;99346.10;103190;1311;686711;-26
2021/12/20 04:01:10;;;;;;;1.80;1.20;;;;;;;-0.08;93.37;99344.84;103729;1314;24173;-30
2021/12/20 04:03:36;;;;;;;3.20;2.60;;;;;;;0.05;92.83;99339.70;103934;1313;23712;-26
2021/12/20 04:06:04;;;;;;;8.10;2.80;;;;;;;0.33;91.43;99336.55;103949;1314;24295;-29
2021/12/20 04:08:30;;;;;;;5.20;2.50;;;;;;;0.25;91.53;99336.05;104031;1314;24163;-26
2021/12/20 04:10:57;;;;;;;4.00;1.70;;;;;;;0.38;90.73;99337.55;103644;1314;24199;-26
2021/12/20 04:13:23;;;;;;;3.20;1.30;;;;;;;0.04;92.27;99347.16;103985;1314;24146;-26
2021/12/20 04:15:49;;;;;;;3.00;1.70;;;;;;;0.08;92.63;99346.77;103915;1314;25303;-30
2021/12/20 04:18:15;;;;;;;2.60;1.50;;;;;;;0.22;91.71;99340.70;103818;1310;24159;-39
2021/12/20 04:20:41;;;;;;;4.50;1.50;;;;;;;-0.17;92.80;99352.13;103959;1313;24153;-30
2021/12/20 04:23:07;;;;;;;9.80;1.80;;;;;;;-0.05;93.50;99348.99;104151;1314;24373;-28
2021/12/20 04:25:32;;;;;;;7.10;2.00;;;;;;;-0.12;93.49;99341.95;103674;1314;24176;-26
2021/12/20 04:27:58;;;;;;;7.10;1.90;;;;;;;-0.11;93.27;99338.95;103929;1314;24189;-30
2021/12/20 04:30:28;;;;;;;5.50;2.30;;;;;;;-0.23;94.05;99348.77;103608;1316;22823;-30
2021/12/20 04:32:54;;;;;;;3.40;2.70;;;;;;;0.22;92.43;99346.17;103737;1310;24375;-30
2021/12/20 04:35:20;;;;;;;2.90;2.30;;;;;;;0.26;91.32;99344.40;103880;1314;22485;-30
2021/12/20 04:37:47;;;;;;;3.90;2.10;;;;;;;0.11;92.42;99359.23;103891;1313;24194;-25
2021/12/20 04:40:18;;;;;;;3.50;2.30;;;;;;;-0.01;92.63;99353.21;103921;1310;24142;-31
2021/12/20 04:42:45;;;;;;;6.00;2.90;;;;;;;-0.09;93.57;99359.49;103910;1313;22720;-30
2021/12/20 04:45:11;;;;;;;3.10;1.00;;;;;;;-0.12;93.61;99371.41;103658;1314;24274;-26
2021/12/20 04:47:37;;;;;;;3.60;2.20;;;;;;;-0.00;93.00;99373.03;104043;1313;24194;-26
2021/12/20 04:50:04;;;;;;;6.50;3.40;;;;;;;-0.27;94.19;99374.91;103793;1314;22457;-26
2021/12/20 04:52:30;;;;;;;4.00;2.70;;;;;;;-0.09;94.17;99378.89;103937;1311;22683;-26
2021/12/20 04:54:55;;;;;;;3.10;2.00;;;;;;;-0.07;93.26;99370.27;103986;1314;24222;-30
2021/12/20 04:57:21;;;;;;;2.90;1.40;;;;;;;-0.25;94.28;99374.79;103995;1314;24220;-30
2021/12/20 04:59:47;;;;;;;2.60;2.10;;;;;;;-0.27;94.54;99378.97;103836;1310;22774;-30
2021/12/20 05:02:13;;;;;;;2.60;1.30;;;;;;;-0.24;94.74;99375.40;104037;1311;22720;-30
2021/12/20 05:04:38;;;;;;;5.80;1.90;;;;;;;-0.15;94.46;99377.10;104033;1313;24142;-30
2021/12/20 05:07:04;;;;;;;2.90;1.60;;;;;;;-0.17;94.88;99367.94;104122;1311;24176;-30
2021/12/20 05:09:36;;;;;;;3.10;1.20;;;;;;;-0.27;95.37;99379.52;103956;1314;24207;-26
2021/12/20 05:12:11;;;;;;;4.40;2.00;;;;;;;-0.24;95.23;99390.16;103881;1315;24206;-26
2021/12/20 05:14:40;;;;;;;1.40;1.10;;;;;;;-0.31;95.56;99399.72;103934;1314;24145;-30
2021/12/20 05:17:07;;;;;;;4.10;2.00;;;;;;;-0.31;95.88;99400.74;103805;1314;25411;-30
2021/12/20 05:19:34;;;;;;;2.70;1.60;;;;;;;-0.24;95.64;99402.66;103979;1305;24121;-30
2021/12/20 05:22:00;;;;;;;2.90;1.80;;;;;;;-0.34;95.98;99405.27;104115;1310;22473;-30
2021/12/20 05:24:25;;;;;;;2.70;1.80;;;;;;;-0.23;95.92;99411.89;104185;1310;24293;-30
2021/12/20 05:26:51;;;;;;;2.20;1.80;;;;;;;-0.29;95.85;99409.92;103861;1314;22464;-30
2021/12/20 05:29:17;;;;;;;5.60;1.80;;;;;;;-0.30;96.12;99418.11;103842;1314;24187;-30
2021/12/20 05:31:43;;;;;;;4.90;2.50;;;;;;;-0.32;96.37;99425.65;103957;1311;24144;-26
2021/12/20 05:34:09;;;;;;;1.30;0.60;;;;;;;-0.29;96.51;99424.04;103707;1307;23826;-30
2021/12/20 05:36:35;;;;;;;3.90;2.10;;;;;;;-0.31;96.35;99424.55;103903;1313;24150;-30
2021/12/20 05:39:02;;;;;;;5.80;1.60;;;;;;;-0.33;96.44;99420.11;103709;1314;24189;-30
2021/12/20 05:41:28;;;;;;;4.30;1.00;;;;;;;-0.30;96.07;99421.09;104061;1310;22468;-26
2021/12/20 05:43:53;;;;;;;7.10;1.30;;;;;;;-0.37;96.00;99427.66;103750;1310;24176;-30
2021/12/20 05:46:19;;;;;;;4.40;1.10;;;;;;;-0.35;96.17;99428.42;104037;1313;24145;-30
2021/12/20 05:48:45;;;;;;;2.30;1.10;;;;;;;-0.24;95.65;99434.33;103603;1314;22452;-26
2021/12/20 05:51:11;;;;;;;1.50;1.00;;;;;;;-0.23;95.82;99439.56;103999;1314;22501;-30
2021/12/20 05:53:36;;;;;;;3.70;1.30;;;;;;;-0.21;95.41;99437.91;103899;1307;24220;-26
2021/12/20 05:56:02;;;;;;;3.60;1.40;;;;;;;-0.14;95.10;99438.75;104103;1313;22830;-30
2021/12/20 05:58:28;;;;;;;2.30;1.10;;;;;;;-0.14;95.22;99442.30;103699;1310;24185;-29
2021/12/20 06:00:54;;;;;;;3.20;2.00;;;;;;;-0.19;95.24;99444.09;103611;1307;24163;-30
2021/12/20 06:03:20;;;;;;;4.50;3.20;;;;;;;-0.23;95.70;99454.12;103775;1313;24135;-30
2021/12/20 06:05:46;;;;;;;2.40;1.40;;;;;;;-0.20;95.48;99453.92;104047;1313;22542;-30
2021/12/20 06:08:11;;;;;;;2.30;1.30;;;;;;;-0.24;95.25;99457.00;103973;1314;24114;-30
2021/12/20 06:10:37;;;;;;;5.10;1.40;;;;;;;-0.26;95.34;99458.46;104187;1314;22459;-26
2021/12/20 06:13:03;;;;;;;3.90;1.90;;;;;;;-0.25;95.25;99458.69;104007;1304;24119;-26
2021/12/20 06:15:29;;;;;;;4.00;1.30;;;;;;;-0.21;95.43;99459.96;103636;1314;24302;-30
2021/12/20 06:17:55;;;;;;;2.60;1.00;;;;;;;-0.25;95.62;99461.86;103850;1314;24148;-30
2021/12/20 06:20:21;;;;;;;3.00;1.80;;;;;;;-0.31;95.96;99459.02;103688;1314;22476;-30
2021/12/20 06:22:47;;;;;;;2.90;1.90;;;;;;;-0.29;96.04;99459.23;103922;1310;24302;-38
2021/12/20 06:25:14;;;;;;;3.20;1.80;;;;;;;-0.25;96.05;99460.44;103507;1314;24013;-30
2021/12/20 06:27:40;;;;;;;1.60;1.10;;;;;;;-0.35;95.88;99458.48;103724;1310;22474;-26
2021/12/20 06:30:08;;;;;;;1.30;1.00;;;;;;;-0.27;95.60;99465.71;103954;1313;22454;-30
2021/12/20 06:32:36;;;;;;;2.40;1.30;;;;;;;-0.32;95.60;99465.92;103760;1307;22738;-30
2021/12/20 06:35:03;;;;;;;3.20;1.30;;;;;;;-0.28;95.40;99465.13;103809;1310;22444;-27
2021/12/20 06:37:31;;;;;;;4.10;0.60;;;;;;;-0.15;94.74;99473.40;103905;1314;22740;-26
2021/12/20 06:39:58;;;;;;;2.60;1.30;;;;;;;-0.27;95.00;99471.69;104067;1314;22485;-30
2021/12/20 06:42:24;;;;;;;2.60;1.50;;;;;;;-0.28;94.75;99469.27;103680;1314;24154;-30
2021/12/20 06:44:50;;;;;;;3.60;1.30;;;;;;;-0.25;94.85;99471.58;103929;1313;24291;-30
2021/12/20 06:47:18;;;;;;;6.00;1.70;;;;;;;-0.20;94.51;99474.29;103847;1310;23054;-27
2021/12/20 06:49:44;;;;;;;2.40;1.10;;;;;;;-0.29;94.82;99481.92;103660;1314;22449;-26
2021/12/20 06:52:12;;;;;;;3.90;1.80;;;;;;;-0.26;94.97;99486.38;103860;1304;24147;-27
2021/12/20 06:54:38;;;;;;;3.50;1.20;;;;;;;-0.28;94.50;99490.98;103761;1314;22461;-30
2021/12/20 06:57:04;;;;;;;2.40;1.70;;;;;;;-0.23;94.48;99494.04;104059;1302;22730;-30
2021/12/20 06:59:30;;;;;;;1.40;0.90;;;;;;;-0.32;94.93;99495.54;103741;1314;22474;-26
2021/12/20 07:01:56;;;;;;;4.60;1.80;;;;;;;-0.32;94.83;99497.08;103950;1314;22467;-30
2021/12/20 07:04:21;;;;;;;2.20;1.40;;;;;;;-0.24;94.41;99490.98;103520;1314;22463;-26
2021/12/20 07:06:47;;;;;;;1.20;0.90;;;;;;;-0.26;94.54;99489.03;103867;1310;24243;-28
2021/12/20 07:09:13;;;;;;;8.00;1.60;;;;;;;-0.18;93.97;99486.45;103928;1314;22525;-26
2021/12/20 07:11:40;;;;;;;3.30;1.30;;;;;;;-0.20;93.75;99492.60;103903;1310;22560;-29
2021/12/20 07:14:07;;;;;;;1.60;0.90;;;;;;;-0.31;93.96;99490.69;103896;1315;22926;-27
2021/12/20 07:16:35;;;;;;;1.20;0.60;;;;;;;-0.24;93.99;99494.29;103798;1313;25996;-26
2021/12/20 07:19:01;;;;;;;1.40;0.70;;;;;;;-0.37;94.32;99494.17;103733;1311;24151;-27
2021/12/20 07:21:27;;;;;;;2.90;1.20;;;;;;;-0.34;94.45;99496.89;103952;1314;24275;-26
2021/12/20 07:23:53;;;;;;;1.80;0.90;;;;;;;-0.37;94.14;99497.38;103815;1314;24183;-30
2021/12/20 07:26:18;;;;;;;3.50;1.50;;;;;;;-0.09;92.99;99497.64;103957;1314;24121;-27
2021/12/20 07:28:44;;;;;;;1.40;1.00;;;;;;;-0.16;92.93;99491.63;103678;1314;22676;-26
2021/12/20 07:31:11;;;;;;;4.20;1.00;;;;;;;-0.08;92.40;99495.70;103828;1313;24086;-26
2021/12/20 07:33:36;;;;;;;1.90;1.30;;;;;;;-0.13;92.68;99507.01;103941;1314;22902;-30
2021/12/20 07:36:03;;;;;;;2.20;0.70;;;;;;;-0.18;92.94;99503.17;103760;1310;23752;-26
2021/12/20 07:38:29;;;;;;;1.30;0.90;;;;;;;-0.04;92.03;99502.67;103823;1310;24238;-30
2021/12/20 07:40:55;;;;;;;3.40;2.00;;;;;;;-0.24;92.69;99502.11;103971;1314;24092;-30
2021/12/20 07:43:21;;;;;;;1.30;0.70;;;;;;;0.14;91.57;99502.44;103927;1302;22719;-30
2021/12/20 07:45:47;;;;;;;1.80;0.90;;;;;;;-0.05;91.23;99496.13;103977;1316;24182;-29
2021/12/20 07:50:51;;;;;;;2.30;0.70;;;;;;;0.04;91.24;99504.72;103976;1314;24272;-27
2021/12/20 07:53:17;;;;;;;4.60;1.20;;;;;;;-0.08;91.75;99500.92;104058;1307;22557;-27
2021/12/20 07:55:42;;;;;;;2.50;1.00;;;;;;;-0.11;91.74;99498.92;103983;1310;22716;-27
2021/12/20 07:58:08;;;;;;;4.10;2.10;;;;;;;-0.09;92.01;99505.79;103763;1314;22696;-30
2021/12/20 08:00:35;;;;;;;2.40;1.30;;;;;;;-0.13;91.98;99499.98;103806;1305;22438;-31
2021/12/20 08:03:00;;;;;;;3.00;1.70;;;;;;;-0.14;92.48;99494.59;104042;1304;24193;-30
2021/12/20 08:05:27;;;;;;;2.60;1.70;;;;;;;-0.04;91.85;99495.53;103774;1307;22800;-26
2021/12/20 08:07:53;;;;;;;2.70;1.00;;;;;;;-0.06;91.68;99498.83;103779;1310;22749;-27
2021/12/20 08:10:20;;;;;;;2.10;1.20;;;;;;;-0.20;92.35;99504.58;103744;1313;22818;-30
2021/12/20 08:12:46;;;;;;;2.80;0.90;;;;;;;-0.21;92.56;99511.13;104140;1314;24802;-27
2021/12/20 08:15:12;;;;;;;7.30;1.60;;;;;;;-0.18;92.45;99509.89;103800;1310;22779;-27
2021/12/20 08:17:38;;;;;;;5.90;1.50;;;;;;;0.07;91.26;99516.27;103785;1314;24325;-30
2021/12/20 08:20:05;;;;;;;2.30;1.00;;;;;;;-0.02;91.53;99514.36;103635;1313;24143;-27
2021/12/20 08:22:31;;;;;;;0.90;0.80;;;;;;;-0.04;91.44;99512.02;103779;1314;24267;-27
2021/12/20 08:24:57;;;;;;;4.80;1.50;;;;;;;-0.13;92.00;99514.37;103635;1314;24274;-27
2021/12/20 08:27:23;;;;;;;7.60;2.10;;;;;;;-0.03;91.71;99518.48;103883;1314;24133;-30
2021/12/20 08:29:49;;;;;;;1.60;1.00;;;;;;;-0.06;92.10;99508.20;103860;1314;22898;-26
2021/12/20 08:32:18;;;;;;;7.30;1.40;;;;;;;-0.06;91.68;99523.98;104031;1310;24306;-30
2021/12/20 08:34:43;;;;;;;2.90;1.50;;;;;;;0.00;91.29;99512.02;103826;1316;24321;-30
2021/12/20 08:37:09;;;;;;;2.10;0.90;;;;;;;0.12;90.87;99508.44;103650;1312;24256;-26
2021/12/20 08:39:35;;;;;;;4.20;2.10;;;;;;;0.09;91.14;99512.55;103691;1314;22475;-27
2021/12/20 08:42:03;;;;;;;2.40;1.10;;;;;;;0.07;90.98;99505.48;103711;1307;22450;-30
2021/12/20 08:44:29;;;;;;;2.80;1.20;;;;;;;-0.04;91.85;99520.36;103859;1314;22473;-27
2021/12/20 08:46:55;;;;;;;3.90;1.00;;;;;;;0.01;91.65;99526.45;103744;1314;22495;-30
2021/12/20 08:49:21;;;;;;;3.80;1.70;;;;;;;-0.03;91.70;99528.54;103664;1311;24147;-30
2021/12/20 08:51:47;;;;;;;2.10;1.50;;;;;;;0.07;91.43;99525.95;103862;1313;22708;-26
2021/12/20 08:54:13;;;;;;;15.00;4.30;;;;;;;-0.02;91.91;99526.52;103583;1314;23865;-29
2021/12/20 08:56:39;;;;;;;2.20;1.30;;;;;;;0.06;91.96;99539.79;103810;1313;24133;-30
2021/12/20 08:59:05;;;;;;;9.40;1.60;;;;;;;0.03;92.52;99550.04;103892;1310;22741;-27
2021/12/20 09:01:31;;;;;;;2.60;1.40;;;;;;;0.02;92.12;99540.41;103570;1311;24280;-27
2021/12/20 09:03:57;;;;;;;4.90;1.10;;;;;;;-0.09;92.72;99547.66;103826;1311;24153;-26
2021/12/20 09:06:25;;;;;;;2.10;1.60;;;;;;;-0.03;92.80;99549.25;103972;1313;22547;-29
2021/12/20 09:08:54;;;;;;;2.10;1.20;;;;;;;-0.04;92.98;99548.98;103920;1316;24239;-27
2021/12/20 09:11:22;;;;;;;5.50;1.30;;;;;;;0.04;92.67;99546.80;103847;1314;23783;-27
2021/12/20 09:13:48;;;;;;;5.80;2.90;;;;;;;-0.09;93.30;99556.13;103908;1314;22440;-26
2021/12/20 09:16:14;;;;;;;6.10;1.50;;;;;;;-0.05;93.84;99554.68;104050;1316;23994;-30
2021/12/20 09:18:40;;;;;;;6.60;2.00;;;;;;;0.13;92.82;99555.41;104018;1307;22774;-27
2021/12/20 09:21:09;;;;;;;2.90;1.20;;;;;;;-0.00;92.57;99554.16;103851;1314;24202;-26
2021/12/20 09:23:35;;;;;;;3.00;1.50;;;;;;;-0.10;93.45;99561.83;103598;1314;24135;-30
2021/12/20 09:26:01;;;;;;;3.90;1.30;;;;;;;-0.03;93.32;99555.96;103773;1310;24121;-30
2021/12/20 09:28:27;;;;;;;3.10;1.90;;;;;;;0.05;92.60;99560.27;103898;1314;24622;-27
2021/12/20 09:30:53;;;;;;;5.00;2.30;;;;;;;-0.00;93.16;99561.94;103951;1307;22753;-28
2021/12/20 09:33:18;;;;;;;5.80;2.00;;;;;;;-0.08;93.34;99565.19;103654;1314;24168;-26
2021/12/20 09:35:44;;;;;;;1.30;1.10;;;;;;;-0.04;93.42;99569.44;103393;1314;24120;-27
2021/12/20 09:38:16;;;;;;;4.10;1.60;;;;;;;-0.09;94.12;99573.58;103534;1313;24244;-30
2021/12/20 09:41:01;;;;;;;3.70;1.60;;;;;;;-0.11;93.69;99572.84;104016;1314;24370;-30
2021/12/20 09:43:27;;;;;;;7.50;2.40;;;;;;;-0.06;93.58;99574.48;103745;1308;23178;-30
2021/12/20 09:45:53;;;;;;;4.20;1.20;;;;;;;0.03;93.81;99578.92;103756;1316;23898;-30
2021/12/20 09:48:18;;;;;;;11.60;1.50;;;;;;;0.03;93.00;99569.88;103918;1306;24244;-27
2021/12/20 09:50:44;;;;;;;3.20;1.90;;;;;;;-0.01;92.85;99575.16;103933;1305;22516;-27
2021/12/20 09:53:09;;;;;;;2.50;1.70;;;;;;;0.01;93.18;99568.89;103929;1314;24121;-30
2021/12/20 09:55:35;;;;;;;5.00;2.20;;;;;;;-0.10;93.58;99575.69;103931;1314;22586;-30
2021/12/20 09:58:02;;;;;;;4.30;2.40;;;;;;;-0.01;93.62;99586.63;104117;1314;24179;-30
2021/12/20 10:00:28;;;;;;;6.70;1.80;;;;;;;-0.00;93.63;99582.50;104031;1310;24547;-26
2021/12/20 10:02:53;;;;;;;2.50;1.10;;;;;;;-0.09;93.67;99592.17;103804;1314;24163;-27
2021/12/20 10:05:20;;;;;;;4.40;2.00;;;;;;;0.04;93.57;99601.02;104051;1307;24253;-27
2021/12/20 10:07:50;;;;;;;3.40;2.00;;;;;;;-0.08;93.41;99598.41;104028;1314;24191;-30
2021/12/20 10:10:39;;;;;;;7.40;1.80;;;;;;;-0.08;93.62;99597.60;103936;1310;22556;-30
2021/12/20 10:13:05;;;;;;;4.40;2.20;;;;;;;-0.13;93.98;99598.16;103835;1314;24132;-26
2021/12/20 10:15:33;;;;;;;3.40;1.80;;;;;;;-0.08;93.72;99599.35;103641;1314;22451;-30
2021/12/20 10:18:00;;;;;;;4.90;2.20;;;;;;;-0.13;93.69;99594.27;103746;1314;24235;-30
2021/12/20 10:20:28;;;;;;;2.50;1.20;;;;;;;-0.04;93.67;99597.27;103958;1307;24249;-27
2021/12/20 10:23:06;;;;;;;4.10;2.10;;;;;;;-0.01;93.30;99595.57;104000;1302;22472;-30
2021/12/20 10:25:32;;;;;;;3.50;2.20;;;;;;;0.02;93.04;99592.00;103720;1314;24159;-26
2021/12/20 10:28:05;;;;;;;3.50;1.90;;;;;;;-0.02;93.28;99594.46;103766;1314;24132;-30
2021/12/20 10:30:33;;;;;;;1.70;1.20;;;;;;;0.01;93.01;99598.11;103840;1314;22473;-30
2021/12/20 10:32:59;;;;;;;2.80;1.80;;;;;;;-0.03;93.35;99600.83;103746;1314;24242;-26
2021/12/20 10:35:25;;;;;;;7.70;1.10;;;;;;;-0.04;93.40;99600.09;103686;1314;24121;-27
2021/12/20 10:37:53;;;;;;;5.40;2.20;;;;;;;0.11;93.24;99601.48;103878;1311;24225;-30
2021/12/20 10:40:19;;;;;;;4.30;1.90;;;;;;;0.21;92.65;99596.09;103697;1311;24163;-30
2021/12/20 10:42:44;;;;;;;6.20;1.70;;;;;;;0.12;93.10;99595.79;103744;1295;24271;-27
2021/12/20 10:45:13;;;;;;;7.10;1.80;;;;;;;0.07;93.25;99594.44;103807;1309;25794;-30
2021/12/20 10:47:40;;;;;;;2.10;1.50;;;;;;;0.13;93.33;99594.98;103893;1302;24263;-26
2021/12/20 10:50:27;;;;;;;6.30;1.50;;;;;;;0.18;93.11;99590.35;103759;1314;22719;-27
2021/12/20 10:52:53;;;;;;;3.30;2.10;;;;;;;-0.00;93.53;99594.84;103865;1314;23745;-30
2021/12/20 10:55:26;;;;;;;5.00;1.70;;;;;;;-0.04;93.66;99591.23;103807;1310;22742;-26
2021/12/20 10:57:52;;;;;;;3.70;1.40;;;;;;;-0.16;94.82;99589.60;103920;1314;24255;-26
2021/12/20 11:00:22;;;;;;;2.20;1.20;;;;;;;-0.03;95.22;99588.48;103833;1304;22476;-26
2021/12/20 11:03:14;;;;;;;6.40;2.20;;;;;;;-0.17;96.25;99594.58;103769;1314;24243;-30
2021/12/20 11:05:52;;;;;;;3.50;1.70;;;;;;;-0.25;97.65;99593.32;103888;1314;24142;-26
2021/12/20 11:11:09;;;;;;;2.60;1.70;;;;;;;-0.40;98.45;99596.91;103638;1313;24132;-30
2021/12/20 11:13:37;;;;;;;4.90;2.70;;;;;;;-0.44;99.46;99597.44;103811;1301;24303;-25
2021/12/20 11:16:10;;;;;;;3.10;2.30;;;;;;;-0.34;99.50;99598.23;103850;1314;24165;-29
2021/12/20 11:18:35;;;;;;;3.10;1.60;;;;;;;-0.31;98.78;99596.97;103971;1314;22586;-26
2021/12/20 11:21:19;;;;;;;3.80;2.20;;;;;;;-0.44;99.37;99598.52;103740;1314;24378;-31
2021/12/20 11:23:44;;;;;;;5.30;2.20;;;;;;;-0.42;98.94;99597.46;103932;1314;22726;-30
2021/12/20 11:26:10;;;;;;;7.10;2.00;;;;;;;-0.40;99.17;99595.06;103937;1315;22543;-30
2021/12/20 11:28:35;;;;;;;2.40;1.50;;;;;;;-0.51;99.50;99597.95;104118;1314;24269;-30
2021/12/20 11:31:04;;;;;;;2.90;2.30;;;;;;;-0.62;99.91;99602.23;103855;1307;24228;-30
2021/12/20 11:33:30;;;;;;;3.20;1.30;;;;;;;-0.48;99.92;99598.81;103784;1314;24403;-30
2021/12/20 11:35:55;;;;;;;4.30;2.00;;;;;;;-0.50;99.73;99603.59;103885;1314;24189;-30
2021/12/20 11:38:21;;;;;;;14.50;3.10;;;;;;;-0.50;99.85;99604.96;103838;1308;22467;-30
2021/12/20 11:40:47;;;;;;;3.90;2.40;;;;;;;-0.44;99.96;99603.46;103981;1315;24162;-26
2021/12/20 11:43:12;;;;;;;3.90;2.30;;;;;;;-0.38;99.86;99598.23;103670;1314;24308;-26
2021/12/20 11:45:38;;;;;;;5.90;2.80;;;;;;;-0.37;99.87;99595.84;103878;1314;24179;-26
2021/12/20 11:48:07;;;;;;;4.00;1.90;;;;;;;-0.39;99.78;99599.70;103852;1313;24229;-32
2021/12/20 11:50:36;;;;;;;2.90;2.30;;;;;;;-0.35;100.00;99597.63;103726;1316;22437;-30
2021/12/20 11:53:06;;;;;;;4.80;3.00;;;;;;;-0.28;99.76;99599.70;103866;1316;24187;-30
2021/12/20 11:55:32;;;;;;;10.00;4.10;;;;;;;-0.29;99.28;99599.08;103731;1314;22637;-30
2021/12/20 11:57:59;;;;;;;3.90;2.50;;;;;;;-0.29;99.39;99601.50;103517;1315;410513;-31
2021/12/20 12:00:28;;;;;;;7.80;4.20;;;;;;;-0.27;99.13;99599.07;103830;1305;24124;-30
2021/12/20 12:02:56;;;;;;;10.20;4.00;;;;;;;-0.29;99.21;99599.61;103798;1314;22735;-30
2021/12/20 12:05:28;;;;;;;4.60;2.50;;;;;;;-0.25;99.10;99602.40;103812;1314;24256;-29
2021/12/20 12:07:54;;;;;;;6.80;3.30;;;;;;;-0.14;98.56;99594.35;103826;1313;24351;-30
2021/12/20 12:10:27;;;;;;;4.70;2.50;;;;;;;-0.15;98.10;99597.28;103749;1314;24187;-26
2021/12/20 12:12:59;;;;;;;7.10;3.30;;;;;;;-0.09;98.13;99596.27;103804;1314;24230;-31